sensor_id;sensor_type;location;lat;lon;timestamp;P1;durP1;ratioP1;P2;durP2;ratioP2
25509;SDS011;13413;52.336;21.200;2023-11-21T00:00:18;36.10;;;26.40;;
25509;SDS011;13413;52.336;21.200;2023-11-21T00:03:06;40.20;;;28.40;;
25509;SDS011;13413;52.336;21.200;2023-11-21T00:05:53;39.00;;;28.10;;
25509;SDS011;13413;52.336;21.200;2023-11-21T00:08:40;42.60;;;29.00;;
25509;SDS011;13413;52.336;21.200;2023-11-21T00:11:28;36.50;;;27.50;;
25509;SDS011;13413;52.336;21.200;2023-11-21T00:14:15;34.20;;;26.30;;
25509;SDS011;13413;52.336;21.200;2023-11-21T00:17:02;35.20;;;25.40;;
25509;SDS011;13413;52.336;21.200;2023-11-21T00:19:50;37.70;;;26.60;;
25509;SDS011;13413;52.336;21.200;2023-11-21T00:22:38;38.10;;;27.20;;
25509;SDS011;13413;52.336;21.200;2023-11-21T00:25:25;39.60;;;27.60;;
25509;SDS011;13413;52.336;21.200;2023-11-21T00:28:13;42.00;;;28.00;;
25509;SDS011;13413;52.336;21.200;2023-11-21T00:31:00;36.20;;;28.10;;
25509;SDS011;13413;52.336;21.200;2023-11-21T00:34:01;43.10;;;27.60;;
25509;SDS011;13413;52.336;21.200;2023-11-21T00:37:08;37.90;;;26.50;;
25509;SDS011;13413;52.336;21.200;2023-11-21T00:39:55;33.30;;;25.10;;
25509;SDS011;13413;52.336;21.200;2023-11-21T00:42:43;33.90;;;24.80;;
25509;SDS011;13413;52.336;21.200;2023-11-21T00:45:30;32.60;;;23.90;;
25509;SDS011;13413;52.336;21.200;2023-11-21T00:48:17;39.80;;;24.40;;
25509;SDS011;13413;52.336;21.200;2023-11-21T00:51:05;35.70;;;24.10;;
25509;SDS011;13413;52.336;21.200;2023-11-21T00:53:53;35.70;;;25.60;;
25509;SDS011;13413;52.336;21.200;2023-11-21T00:56:40;35.00;;;25.10;;
25509;SDS011;13413;52.336;21.200;2023-11-21T00:59:27;37.20;;;25.60;;
25509;SDS011;13413;52.336;21.200;2023-11-21T01:02:14;44.50;;;26.80;;
25509;SDS011;13413;52.336;21.200;2023-11-21T01:05:02;37.70;;;27.80;;
25509;SDS011;13413;52.336;21.200;2023-11-21T01:07:50;37.10;;;27.50;;
25509;SDS011;13413;52.336;21.200;2023-11-21T01:10:37;33.60;;;25.90;;
25509;SDS011;13413;52.336;21.200;2023-11-21T01:21:41;33.00;;;25.30;;
25509;SDS011;13413;52.336;21.200;2023-11-21T01:24:28;36.70;;;25.60;;
25509;SDS011;13413;52.336;21.200;2023-11-21T01:27:15;31.90;;;24.10;;
25509;SDS011;13413;52.336;21.200;2023-11-21T01:30:03;35.80;;;24.90;;
25509;SDS011;13413;52.336;21.200;2023-11-21T01:32:51;36.30;;;23.20;;
25509;SDS011;13413;52.336;21.200;2023-11-21T01:35:38;29.50;;;21.80;;
25509;SDS011;13413;52.336;21.200;2023-11-21T01:38:25;32.40;;;23.90;;
25509;SDS011;13413;52.336;21.200;2023-11-21T01:41:13;32.70;;;23.70;;
25509;SDS011;13413;52.336;21.200;2023-11-21T01:44:03;33.10;;;23.50;;
25509;SDS011;13413;52.336;21.200;2023-11-21T01:46:50;34.90;;;23.90;;
25509;SDS011;13413;52.336;21.200;2023-11-21T01:49:37;36.00;;;23.90;;
25509;SDS011;13413;52.336;21.200;2023-11-21T01:52:25;33.20;;;23.70;;
25509;SDS011;13413;52.336;21.200;2023-11-21T01:55:13;30.70;;;23.10;;
25509;SDS011;13413;52.336;21.200;2023-11-21T01:58:02;33.90;;;24.40;;
25509;SDS011;13413;52.336;21.200;2023-11-21T02:00:49;32.30;;;23.50;;
25509;SDS011;13413;52.336;21.200;2023-11-21T02:03:37;33.90;;;23.40;;
25509;SDS011;13413;52.336;21.200;2023-11-21T02:06:24;37.00;;;25.10;;
25509;SDS011;13413;52.336;21.200;2023-11-21T02:09:11;32.90;;;23.70;;
25509;SDS011;13413;52.336;21.200;2023-11-21T02:11:59;35.40;;;23.70;;
25509;SDS011;13413;52.336;21.200;2023-11-21T02:14:46;31.70;;;22.60;;
25509;SDS011;13413;52.336;21.200;2023-11-21T02:17:34;38.30;;;25.20;;
25509;SDS011;13413;52.336;21.200;2023-11-21T02:20:21;34.90;;;23.80;;
25509;SDS011;13413;52.336;21.200;2023-11-21T02:23:08;38.70;;;26.50;;
25509;SDS011;13413;52.336;21.200;2023-11-21T02:25:55;39.40;;;25.40;;
25509;SDS011;13413;52.336;21.200;2023-11-21T02:28:42;35.60;;;24.20;;
25509;SDS011;13413;52.336;21.200;2023-11-21T02:31:30;41.10;;;27.30;;
25509;SDS011;13413;52.336;21.200;2023-11-21T02:34:17;34.40;;;24.40;;
25509;SDS011;13413;52.336;21.200;2023-11-21T02:37:04;36.20;;;24.20;;
25509;SDS011;13413;52.336;21.200;2023-11-21T02:39:51;37.60;;;23.10;;
25509;SDS011;13413;52.336;21.200;2023-11-21T02:42:39;38.10;;;25.10;;
25509;SDS011;13413;52.336;21.200;2023-11-21T02:45:29;38.00;;;24.70;;
25509;SDS011;13413;52.336;21.200;2023-11-21T02:48:17;37.80;;;24.90;;
25509;SDS011;13413;52.336;21.200;2023-11-21T02:51:04;32.70;;;23.10;;
25509;SDS011;13413;52.336;21.200;2023-11-21T02:53:51;33.70;;;25.20;;
25509;SDS011;13413;52.336;21.200;2023-11-21T02:56:39;37.70;;;24.00;;
25509;SDS011;13413;52.336;21.200;2023-11-21T02:59:26;39.60;;;26.40;;
25509;SDS011;13413;52.336;21.200;2023-11-21T03:02:13;34.80;;;23.80;;
25509;SDS011;13413;52.336;21.200;2023-11-21T03:05:01;37.50;;;25.10;;
25509;SDS011;13413;52.336;21.200;2023-11-21T03:07:48;37.30;;;24.20;;
25509;SDS011;13413;52.336;21.200;2023-11-21T03:10:35;39.00;;;26.20;;
25509;SDS011;13413;52.336;21.200;2023-11-21T03:13:22;41.70;;;26.30;;
25509;SDS011;13413;52.336;21.200;2023-11-21T03:16:10;35.00;;;23.50;;
25509;SDS011;13413;52.336;21.200;2023-11-21T03:18:58;34.20;;;24.10;;
25509;SDS011;13413;52.336;21.200;2023-11-21T03:21:45;35.60;;;24.20;;
25509;SDS011;13413;52.336;21.200;2023-11-21T03:24:32;34.40;;;23.30;;
25509;SDS011;13413;52.336;21.200;2023-11-21T03:27:20;40.90;;;24.70;;
25509;SDS011;13413;52.336;21.200;2023-11-21T03:30:08;36.30;;;23.60;;
25509;SDS011;13413;52.336;21.200;2023-11-21T03:44:08;36.70;;;24.50;;
25509;SDS011;13413;52.336;21.200;2023-11-21T03:46:55;33.10;;;23.10;;
25509;SDS011;13413;52.336;21.200;2023-11-21T03:49:43;30.80;;;22.60;;
25509;SDS011;13413;52.336;21.200;2023-11-21T03:52:30;36.50;;;24.30;;
25509;SDS011;13413;52.336;21.200;2023-11-21T03:55:17;38.50;;;24.10;;
25509;SDS011;13413;52.336;21.200;2023-11-21T03:58:04;30.70;;;22.00;;
25509;SDS011;13413;52.336;21.200;2023-11-21T04:00:52;35.20;;;22.10;;
25509;SDS011;13413;52.336;21.200;2023-11-21T04:06:40;31.40;;;21.50;;
25509;SDS011;13413;52.336;21.200;2023-11-21T04:09:28;31.80;;;22.00;;
25509;SDS011;13413;52.336;21.200;2023-11-21T04:12:15;32.50;;;22.60;;
25509;SDS011;13413;52.336;21.200;2023-11-21T04:15:03;31.70;;;21.60;;
25509;SDS011;13413;52.336;21.200;2023-11-21T04:17:51;38.20;;;22.20;;
25509;SDS011;13413;52.336;21.200;2023-11-21T04:20:38;30.80;;;21.60;;
25509;SDS011;13413;52.336;21.200;2023-11-21T04:23:25;29.90;;;20.50;;
25509;SDS011;13413;52.336;21.200;2023-11-21T04:26:13;33.20;;;21.90;;
25509;SDS011;13413;52.336;21.200;2023-11-21T04:29:00;32.70;;;22.10;;
25509;SDS011;13413;52.336;21.200;2023-11-21T04:31:48;33.10;;;19.30;;
25509;SDS011;13413;52.336;21.200;2023-11-21T04:34:35;26.70;;;20.30;;
25509;SDS011;13413;52.336;21.200;2023-11-21T04:37:22;29.00;;;19.90;;
25509;SDS011;13413;52.336;21.200;2023-11-21T04:40:10;31.60;;;21.00;;
25509;SDS011;13413;52.336;21.200;2023-11-21T04:42:57;29.80;;;21.00;;
25509;SDS011;13413;52.336;21.200;2023-11-21T04:45:45;32.00;;;20.90;;
25509;SDS011;13413;52.336;21.200;2023-11-21T04:48:32;27.00;;;18.00;;
25509;SDS011;13413;52.336;21.200;2023-11-21T04:51:19;29.70;;;19.60;;
25509;SDS011;13413;52.336;21.200;2023-11-21T04:54:07;27.70;;;18.90;;
25509;SDS011;13413;52.336;21.200;2023-11-21T04:56:54;27.10;;;18.50;;
25509;SDS011;13413;52.336;21.200;2023-11-21T04:59:41;23.70;;;17.60;;
25509;SDS011;13413;52.336;21.200;2023-11-21T05:02:28;23.70;;;17.80;;
25509;SDS011;13413;52.336;21.200;2023-11-21T05:05:16;26.40;;;18.20;;
25509;SDS011;13413;52.336;21.200;2023-11-21T05:08:03;24.40;;;18.60;;
25509;SDS011;13413;52.336;21.200;2023-11-21T05:10:52;28.20;;;18.70;;
25509;SDS011;13413;52.336;21.200;2023-11-21T05:13:40;27.20;;;18.70;;
25509;SDS011;13413;52.336;21.200;2023-11-21T05:16:27;28.40;;;19.80;;
25509;SDS011;13413;52.336;21.200;2023-11-21T05:19:14;27.30;;;19.30;;
25509;SDS011;13413;52.336;21.200;2023-11-21T05:22:01;33.00;;;21.20;;
25509;SDS011;13413;52.336;21.200;2023-11-21T05:24:48;27.90;;;19.40;;
25509;SDS011;13413;52.336;21.200;2023-11-21T05:27:36;25.90;;;18.60;;
25509;SDS011;13413;52.336;21.200;2023-11-21T05:30:24;26.30;;;19.90;;
25509;SDS011;13413;52.336;21.200;2023-11-21T05:33:12;24.30;;;17.70;;
25509;SDS011;13413;52.336;21.200;2023-11-21T05:35:59;24.40;;;18.70;;
25509;SDS011;13413;52.336;21.200;2023-11-21T05:38:46;24.50;;;17.60;;
25509;SDS011;13413;52.336;21.200;2023-11-21T05:41:33;24.90;;;17.60;;
25509;SDS011;13413;52.336;21.200;2023-11-21T05:44:21;24.80;;;18.70;;
25509;SDS011;13413;52.336;21.200;2023-11-21T05:47:08;26.60;;;17.40;;
25509;SDS011;13413;52.336;21.200;2023-11-21T05:49:56;29.30;;;18.90;;
25509;SDS011;13413;52.336;21.200;2023-11-21T05:52:44;32.30;;;18.80;;
25509;SDS011;13413;52.336;21.200;2023-11-21T06:03:38;34.60;;;23.00;;
25509;SDS011;13413;52.336;21.200;2023-11-21T06:06:25;27.90;;;19.30;;
25509;SDS011;13413;52.336;21.200;2023-11-21T06:09:12;24.30;;;18.50;;
25509;SDS011;13413;52.336;21.200;2023-11-21T06:11:59;29.50;;;20.10;;
25509;SDS011;13413;52.336;21.200;2023-11-21T06:14:50;28.00;;;19.40;;
25509;SDS011;13413;52.336;21.200;2023-11-21T06:17:37;32.60;;;21.30;;
25509;SDS011;13413;52.336;21.200;2023-11-21T06:20:24;37.30;;;24.60;;
25509;SDS011;13413;52.336;21.200;2023-11-21T06:23:12;39.10;;;26.10;;
25509;SDS011;13413;52.336;21.200;2023-11-21T06:25:59;45.20;;;27.30;;
25509;SDS011;13413;52.336;21.200;2023-11-21T06:28:47;45.70;;;27.80;;
25509;SDS011;13413;52.336;21.200;2023-11-21T06:31:34;42.10;;;27.10;;
25509;SDS011;13413;52.336;21.200;2023-11-21T06:34:22;38.50;;;25.60;;
25509;SDS011;13413;52.336;21.200;2023-11-21T06:37:09;38.40;;;24.90;;
25509;SDS011;13413;52.336;21.200;2023-11-21T06:39:57;39.00;;;25.50;;
25509;SDS011;13413;52.336;21.200;2023-11-21T06:42:45;34.30;;;23.90;;
25509;SDS011;13413;52.336;21.200;2023-11-21T06:45:33;32.90;;;22.10;;
25509;SDS011;13413;52.336;21.200;2023-11-21T06:48:20;39.90;;;26.60;;
25509;SDS011;13413;52.336;21.200;2023-11-21T06:54:12;44.70;;;29.10;;
25509;SDS011;13413;52.336;21.200;2023-11-21T06:57:00;38.40;;;25.40;;
25509;SDS011;13413;52.336;21.200;2023-11-21T06:59:47;39.90;;;26.30;;
25509;SDS011;13413;52.336;21.200;2023-11-21T07:02:34;36.50;;;25.40;;
25509;SDS011;13413;52.336;21.200;2023-11-21T07:05:22;44.20;;;25.10;;
25509;SDS011;13413;52.336;21.200;2023-11-21T07:08:09;33.60;;;23.00;;
25509;SDS011;13413;52.336;21.200;2023-11-21T07:10:58;36.00;;;23.70;;
25509;SDS011;13413;52.336;21.200;2023-11-21T07:13:47;36.90;;;25.70;;
25509;SDS011;13413;52.336;21.200;2023-11-21T07:16:35;45.00;;;28.50;;
25509;SDS011;13413;52.336;21.200;2023-11-21T07:19:23;45.30;;;27.00;;
25509;SDS011;13413;52.336;21.200;2023-11-21T07:22:10;39.70;;;26.50;;
25509;SDS011;13413;52.336;21.200;2023-11-21T07:24:57;42.20;;;24.90;;
25509;SDS011;13413;52.336;21.200;2023-11-21T07:27:45;39.50;;;24.00;;
25509;SDS011;13413;52.336;21.200;2023-11-21T07:30:32;39.30;;;25.10;;
25509;SDS011;13413;52.336;21.200;2023-11-21T07:33:21;37.70;;;25.60;;
25509;SDS011;13413;52.336;21.200;2023-11-21T07:36:09;37.80;;;25.80;;
25509;SDS011;13413;52.336;21.200;2023-11-21T07:38:57;45.90;;;28.30;;
25509;SDS011;13413;52.336;21.200;2023-11-21T07:41:45;41.70;;;26.30;;
25509;SDS011;13413;52.336;21.200;2023-11-21T07:44:34;40.60;;;26.10;;
25509;SDS011;13413;52.336;21.200;2023-11-21T07:47:22;34.10;;;22.10;;
25509;SDS011;13413;52.336;21.200;2023-11-21T07:50:09;35.90;;;21.80;;
25509;SDS011;13413;52.336;21.200;2023-11-21T07:53:00;35.70;;;23.60;;
25509;SDS011;13413;52.336;21.200;2023-11-21T07:55:48;39.50;;;22.70;;
25509;SDS011;13413;52.336;21.200;2023-11-21T07:58:36;37.00;;;22.60;;
25509;SDS011;13413;52.336;21.200;2023-11-21T08:01:24;35.90;;;23.80;;
25509;SDS011;13413;52.336;21.200;2023-11-21T08:04:12;42.60;;;26.20;;
25509;SDS011;13413;52.336;21.200;2023-11-21T08:07:01;50.70;;;31.00;;
25509;SDS011;13413;52.336;21.200;2023-11-21T08:09:50;51.80;;;29.80;;
25509;SDS011;13413;52.336;21.200;2023-11-21T08:12:38;51.40;;;32.40;;
25509;SDS011;13413;52.336;21.200;2023-11-21T08:26:42;35.90;;;24.00;;
25509;SDS011;13413;52.336;21.200;2023-11-21T08:29:31;39.90;;;25.20;;
25509;SDS011;13413;52.336;21.200;2023-11-21T08:32:20;34.20;;;22.30;;
25509;SDS011;13413;52.336;21.200;2023-11-21T08:35:08;36.20;;;23.60;;
25509;SDS011;13413;52.336;21.200;2023-11-21T08:37:56;42.00;;;25.10;;
25509;SDS011;13413;52.336;21.200;2023-11-21T08:40:44;38.10;;;24.20;;
25509;SDS011;13413;52.336;21.200;2023-11-21T08:43:32;39.30;;;25.20;;
25509;SDS011;13413;52.336;21.200;2023-11-21T08:46:22;41.40;;;24.50;;
25509;SDS011;13413;52.336;21.200;2023-11-21T08:49:10;39.50;;;25.40;;
25509;SDS011;13413;52.336;21.200;2023-11-21T08:51:57;50.10;;;30.50;;
25509;SDS011;13413;52.336;21.200;2023-11-21T08:54:46;41.10;;;27.50;;
25509;SDS011;13413;52.336;21.200;2023-11-21T08:57:34;39.40;;;25.50;;
25509;SDS011;13413;52.336;21.200;2023-11-21T09:00:24;38.20;;;25.20;;
25509;SDS011;13413;52.336;21.200;2023-11-21T09:03:14;41.60;;;25.20;;
25509;SDS011;13413;52.336;21.200;2023-11-21T09:06:03;51.70;;;30.10;;
25509;SDS011;13413;52.336;21.200;2023-11-21T09:08:53;48.60;;;30.50;;
25509;SDS011;13413;52.336;21.200;2023-11-21T09:11:41;45.10;;;27.20;;
25509;SDS011;13413;52.336;21.200;2023-11-21T09:14:30;44.10;;;26.50;;
25509;SDS011;13413;52.336;21.200;2023-11-21T09:17:19;39.70;;;25.20;;
25509;SDS011;13413;52.336;21.200;2023-11-21T09:20:07;38.80;;;26.60;;
25509;SDS011;13413;52.336;21.200;2023-11-21T09:22:56;40.30;;;26.90;;
25509;SDS011;13413;52.336;21.200;2023-11-21T09:25:45;41.70;;;25.50;;
25509;SDS011;13413;52.336;21.200;2023-11-21T09:28:34;38.50;;;23.20;;
25509;SDS011;13413;52.336;21.200;2023-11-21T09:31:23;41.10;;;26.00;;
25509;SDS011;13413;52.336;21.200;2023-11-21T09:34:12;37.50;;;24.10;;
25509;SDS011;13413;52.336;21.200;2023-11-21T09:37:01;34.60;;;22.80;;
25509;SDS011;13413;52.336;21.200;2023-11-21T09:39:49;39.40;;;25.40;;
25509;SDS011;13413;52.336;21.200;2023-11-21T09:42:42;36.00;;;24.20;;
25509;SDS011;13413;52.336;21.200;2023-11-21T09:45:36;41.30;;;25.60;;
25509;SDS011;13413;52.336;21.200;2023-11-21T09:48:26;44.00;;;28.60;;
25509;SDS011;13413;52.336;21.200;2023-11-21T09:51:16;43.20;;;27.90;;
25509;SDS011;13413;52.336;21.200;2023-11-21T09:54:07;40.50;;;25.30;;
25509;SDS011;13413;52.336;21.200;2023-11-21T09:56:57;65.60;;;38.30;;
25509;SDS011;13413;52.336;21.200;2023-11-21T09:59:46;53.30;;;33.00;;
25509;SDS011;13413;52.336;21.200;2023-11-21T10:02:37;48.70;;;29.40;;
25509;SDS011;13413;52.336;21.200;2023-11-21T10:05:26;43.50;;;27.50;;
25509;SDS011;13413;52.336;21.200;2023-11-21T10:08:16;42.50;;;27.90;;
25509;SDS011;13413;52.336;21.200;2023-11-21T10:11:07;45.20;;;28.20;;
25509;SDS011;13413;52.336;21.200;2023-11-21T10:13:57;52.90;;;30.00;;
25509;SDS011;13413;52.336;21.200;2023-11-21T10:16:48;42.90;;;26.60;;
25509;SDS011;13413;52.336;21.200;2023-11-21T10:19:36;37.60;;;25.70;;
25509;SDS011;13413;52.336;21.200;2023-11-21T10:22:26;65.50;;;39.30;;
25509;SDS011;13413;52.336;21.200;2023-11-21T10:25:13;50.40;;;31.30;;
25509;SDS011;13413;52.336;21.200;2023-11-21T10:28:02;48.60;;;32.30;;
25509;SDS011;13413;52.336;21.200;2023-11-21T10:30:51;46.60;;;28.70;;
25509;SDS011;13413;52.336;21.200;2023-11-21T10:33:40;44.70;;;28.20;;
25509;SDS011;13413;52.336;21.200;2023-11-21T10:36:27;45.40;;;20.90;;
25509;SDS011;13413;52.336;21.200;2023-11-21T10:47:33;51.20;;;29.90;;
25509;SDS011;13413;52.336;21.200;2023-11-21T10:50:22;47.50;;;28.30;;
25509;SDS011;13413;52.336;21.200;2023-11-21T10:53:12;44.30;;;27.00;;
25509;SDS011;13413;52.336;21.200;2023-11-21T10:56:05;48.80;;;28.80;;
25509;SDS011;13413;52.336;21.200;2023-11-21T10:58:55;47.80;;;29.40;;
25509;SDS011;13413;52.336;21.200;2023-11-21T11:01:45;45.10;;;27.60;;
25509;SDS011;13413;52.336;21.200;2023-11-21T11:04:39;44.50;;;26.90;;
25509;SDS011;13413;52.336;21.200;2023-11-21T11:07:28;43.30;;;27.90;;
25509;SDS011;13413;52.336;21.200;2023-11-21T11:10:17;45.10;;;27.90;;
25509;SDS011;13413;52.336;21.200;2023-11-21T11:13:07;39.30;;;25.30;;
25509;SDS011;13413;52.336;21.200;2023-11-21T11:15:58;39.00;;;26.00;;
25509;SDS011;13413;52.336;21.200;2023-11-21T11:18:47;38.00;;;25.80;;
25509;SDS011;13413;52.336;21.200;2023-11-21T11:21:38;39.70;;;26.30;;
25509;SDS011;13413;52.336;21.200;2023-11-21T11:28:03;33.00;;;22.50;;
25509;SDS011;13413;52.336;21.200;2023-11-21T11:30:57;36.10;;;23.60;;
25509;SDS011;13413;52.336;21.200;2023-11-21T11:33:52;40.00;;;26.10;;
25509;SDS011;13413;52.336;21.200;2023-11-21T11:36:43;44.40;;;26.80;;
25509;SDS011;13413;52.336;21.200;2023-11-21T11:39:41;45.40;;;26.50;;
25509;SDS011;13413;52.336;21.200;2023-11-21T11:42:30;35.60;;;23.30;;
25509;SDS011;13413;52.336;21.200;2023-11-21T11:45:21;43.20;;;25.40;;
25509;SDS011;13413;52.336;21.200;2023-11-21T11:48:18;44.30;;;28.00;;
25509;SDS011;13413;52.336;21.200;2023-11-21T11:51:09;46.50;;;27.20;;
25509;SDS011;13413;52.336;21.200;2023-11-21T11:53:58;36.60;;;25.50;;
25509;SDS011;13413;52.336;21.200;2023-11-21T11:56:47;41.70;;;26.40;;
25509;SDS011;13413;52.336;21.200;2023-11-21T11:59:42;42.80;;;26.40;;
25509;SDS011;13413;52.336;21.200;2023-11-21T12:02:58;39.10;;;24.80;;
25509;SDS011;13413;52.336;21.200;2023-11-21T12:05:47;39.80;;;26.10;;
25509;SDS011;13413;52.336;21.200;2023-11-21T12:08:36;36.50;;;24.70;;
25509;SDS011;13413;52.336;21.200;2023-11-21T12:11:27;41.40;;;24.30;;
25509;SDS011;13413;52.336;21.200;2023-11-21T12:14:18;45.00;;;25.60;;
25509;SDS011;13413;52.336;21.200;2023-11-21T12:17:07;61.10;;;32.50;;
25509;SDS011;13413;52.336;21.200;2023-11-21T12:20:02;42.60;;;26.50;;
25509;SDS011;13413;52.336;21.200;2023-11-21T12:22:51;43.90;;;27.30;;
25509;SDS011;13413;52.336;21.200;2023-11-21T12:25:41;38.50;;;25.50;;
25509;SDS011;13413;52.336;21.200;2023-11-21T12:28:29;39.90;;;24.80;;
25509;SDS011;13413;52.336;21.200;2023-11-21T12:31:17;44.50;;;28.40;;
25509;SDS011;13413;52.336;21.200;2023-11-21T12:34:05;54.50;;;29.70;;
25509;SDS011;13413;52.336;21.200;2023-11-21T12:36:55;49.40;;;28.40;;
25509;SDS011;13413;52.336;21.200;2023-11-21T12:39:43;44.50;;;26.00;;
25509;SDS011;13413;52.336;21.200;2023-11-21T12:42:32;54.10;;;32.20;;
25509;SDS011;13413;52.336;21.200;2023-11-21T12:45:22;39.80;;;26.80;;
25509;SDS011;13413;52.336;21.200;2023-11-21T12:50:59;37.80;;;26.80;;
25509;SDS011;13413;52.336;21.200;2023-11-21T12:53:49;40.30;;;26.70;;
25509;SDS011;13413;52.336;21.200;2023-11-21T12:56:39;37.70;;;25.90;;
25509;SDS011;13413;52.336;21.200;2023-11-21T13:07:48;47.10;;;29.00;;
25509;SDS011;13413;52.336;21.200;2023-11-21T13:10:36;37.60;;;25.60;;
25509;SDS011;13413;52.336;21.200;2023-11-21T13:13:24;46.00;;;29.70;;
25509;SDS011;13413;52.336;21.200;2023-11-21T13:16:14;43.90;;;27.30;;
25509;SDS011;13413;52.336;21.200;2023-11-21T13:19:03;42.20;;;27.80;;
25509;SDS011;13413;52.336;21.200;2023-11-21T13:21:52;43.90;;;29.60;;
25509;SDS011;13413;52.336;21.200;2023-11-21T13:24:39;41.10;;;27.40;;
25509;SDS011;13413;52.336;21.200;2023-11-21T13:27:28;40.30;;;27.60;;
25509;SDS011;13413;52.336;21.200;2023-11-21T13:30:16;40.20;;;27.70;;
25509;SDS011;13413;52.336;21.200;2023-11-21T13:33:04;45.30;;;26.80;;
25509;SDS011;13413;52.336;21.200;2023-11-21T13:35:54;45.50;;;29.30;;
25509;SDS011;13413;52.336;21.200;2023-11-21T13:38:43;53.30;;;33.20;;
25509;SDS011;13413;52.336;21.200;2023-11-21T13:41:33;55.30;;;35.10;;
25509;SDS011;13413;52.336;21.200;2023-11-21T13:44:21;52.30;;;33.80;;
25509;SDS011;13413;52.336;21.200;2023-11-21T13:47:10;53.10;;;35.80;;
25509;SDS011;13413;52.336;21.200;2023-11-21T13:49:58;48.40;;;33.00;;
25509;SDS011;13413;52.336;21.200;2023-11-21T13:52:46;51.70;;;32.90;;
25509;SDS011;13413;52.336;21.200;2023-11-21T13:55:37;50.30;;;31.80;;
25509;SDS011;13413;52.336;21.200;2023-11-21T13:58:25;46.20;;;31.70;;
25509;SDS011;13413;52.336;21.200;2023-11-21T14:01:15;50.60;;;30.80;;
25509;SDS011;13413;52.336;21.200;2023-11-21T14:04:04;47.40;;;30.00;;
25509;SDS011;13413;52.336;21.200;2023-11-21T14:06:53;44.40;;;28.70;;
25509;SDS011;13413;52.336;21.200;2023-11-21T14:09:40;60.00;;;35.20;;
25509;SDS011;13413;52.336;21.200;2023-11-21T14:12:28;46.40;;;29.70;;
25509;SDS011;13413;52.336;21.200;2023-11-21T14:15:17;45.60;;;28.40;;
25509;SDS011;13413;52.336;21.200;2023-11-21T14:18:05;46.30;;;31.00;;
25509;SDS011;13413;52.336;21.200;2023-11-21T14:20:54;53.90;;;32.90;;
25509;SDS011;13413;52.336;21.200;2023-11-21T14:23:42;45.90;;;29.10;;
25509;SDS011;13413;52.336;21.200;2023-11-21T14:26:31;42.90;;;27.50;;
25509;SDS011;13413;52.336;21.200;2023-11-21T14:29:20;54.40;;;30.80;;
25509;SDS011;13413;52.336;21.200;2023-11-21T14:32:07;42.00;;;28.00;;
25509;SDS011;13413;52.336;21.200;2023-11-21T14:34:55;43.70;;;27.40;;
25509;SDS011;13413;52.336;21.200;2023-11-21T14:37:42;45.80;;;28.40;;
25509;SDS011;13413;52.336;21.200;2023-11-21T14:40:32;44.70;;;29.10;;
25509;SDS011;13413;52.336;21.200;2023-11-21T14:43:20;48.00;;;31.50;;
25509;SDS011;13413;52.336;21.200;2023-11-21T14:46:08;45.10;;;30.30;;
25509;SDS011;13413;52.336;21.200;2023-11-21T14:48:56;64.60;;;40.10;;
25509;SDS011;13413;52.336;21.200;2023-11-21T14:51:43;56.60;;;35.70;;
25509;SDS011;13413;52.336;21.200;2023-11-21T14:54:32;45.50;;;30.20;;
25509;SDS011;13413;52.336;21.200;2023-11-21T14:57:20;44.70;;;29.90;;
25509;SDS011;13413;52.336;21.200;2023-11-21T15:00:10;41.90;;;28.10;;
25509;SDS011;13413;52.336;21.200;2023-11-21T15:03:00;37.30;;;25.50;;
25509;SDS011;13413;52.336;21.200;2023-11-21T15:05:50;39.10;;;25.30;;
25509;SDS011;13413;52.336;21.200;2023-11-21T15:08:38;44.20;;;27.10;;
25509;SDS011;13413;52.336;21.200;2023-11-21T15:11:26;40.30;;;26.90;;
25509;SDS011;13413;52.336;21.200;2023-11-21T15:14:13;41.10;;;26.90;;
25509;SDS011;13413;52.336;21.200;2023-11-21T15:17:02;44.00;;;27.30;;
25509;SDS011;13413;52.336;21.200;2023-11-21T15:19:50;46.80;;;27.40;;
25509;SDS011;13413;52.336;21.200;2023-11-21T15:30:54;56.80;;;32.90;;
25509;SDS011;13413;52.336;21.200;2023-11-21T15:33:44;54.40;;;32.50;;
25509;SDS011;13413;52.336;21.200;2023-11-21T15:36:32;56.80;;;34.00;;
25509;SDS011;13413;52.336;21.200;2023-11-21T15:39:20;46.50;;;28.60;;
25509;SDS011;13413;52.336;21.200;2023-11-21T15:42:08;46.60;;;29.10;;
25509;SDS011;13413;52.336;21.200;2023-11-21T15:44:56;51.00;;;29.80;;
25509;SDS011;13413;52.336;21.200;2023-11-21T15:50:32;41.80;;;27.60;;
25509;SDS011;13413;52.336;21.200;2023-11-21T15:53:20;42.50;;;28.00;;
25509;SDS011;13413;52.336;21.200;2023-11-21T15:56:08;44.10;;;26.20;;
25509;SDS011;13413;52.336;21.200;2023-11-21T15:58:56;41.50;;;27.60;;
25509;SDS011;13413;52.336;21.200;2023-11-21T16:01:44;42.90;;;25.60;;
25509;SDS011;13413;52.336;21.200;2023-11-21T16:04:33;42.50;;;26.60;;
25509;SDS011;13413;52.336;21.200;2023-11-21T16:07:21;40.70;;;26.30;;
25509;SDS011;13413;52.336;21.200;2023-11-21T16:10:09;44.60;;;27.20;;
25509;SDS011;13413;52.336;21.200;2023-11-21T16:12:58;44.10;;;27.60;;
25509;SDS011;13413;52.336;21.200;2023-11-21T16:15:46;46.60;;;28.10;;
25509;SDS011;13413;52.336;21.200;2023-11-21T16:18:37;51.00;;;29.30;;
25509;SDS011;13413;52.336;21.200;2023-11-21T16:21:25;54.40;;;29.20;;
25509;SDS011;13413;52.336;21.200;2023-11-21T16:24:13;52.50;;;31.10;;
25509;SDS011;13413;52.336;21.200;2023-11-21T16:27:02;55.70;;;32.20;;
25509;SDS011;13413;52.336;21.200;2023-11-21T16:32:38;54.10;;;30.70;;
25509;SDS011;13413;52.336;21.200;2023-11-21T16:35:26;52.40;;;29.90;;
25509;SDS011;13413;52.336;21.200;2023-11-21T16:38:14;51.50;;;27.40;;
25509;SDS011;13413;52.336;21.200;2023-11-21T16:41:02;44.60;;;25.70;;
25509;SDS011;13413;52.336;21.200;2023-11-21T16:43:50;47.70;;;26.80;;
25509;SDS011;13413;52.336;21.200;2023-11-21T16:46:37;42.70;;;25.70;;
25509;SDS011;13413;52.336;21.200;2023-11-21T16:49:25;47.30;;;26.20;;
25509;SDS011;13413;52.336;21.200;2023-11-21T16:52:13;53.00;;;28.80;;
25509;SDS011;13413;52.336;21.200;2023-11-21T16:55:01;59.60;;;30.50;;
25509;SDS011;13413;52.336;21.200;2023-11-21T16:57:50;53.40;;;29.50;;
25509;SDS011;13413;52.336;21.200;2023-11-21T17:00:37;45.90;;;27.50;;
25509;SDS011;13413;52.336;21.200;2023-11-21T17:03:31;47.00;;;27.30;;
25509;SDS011;13413;52.336;21.200;2023-11-21T17:06:20;47.10;;;27.60;;
25509;SDS011;13413;52.336;21.200;2023-11-21T17:09:08;45.40;;;25.30;;
25509;SDS011;13413;52.336;21.200;2023-11-21T17:11:55;45.50;;;27.30;;
25509;SDS011;13413;52.336;21.200;2023-11-21T17:14:45;46.20;;;26.60;;
25509;SDS011;13413;52.336;21.200;2023-11-21T17:17:33;47.10;;;27.10;;
25509;SDS011;13413;52.336;21.200;2023-11-21T17:20:20;43.10;;;24.80;;
25509;SDS011;13413;52.336;21.200;2023-11-21T17:23:08;39.80;;;25.40;;
25509;SDS011;13413;52.336;21.200;2023-11-21T17:25:56;43.80;;;25.30;;
25509;SDS011;13413;52.336;21.200;2023-11-21T17:28:44;37.30;;;23.10;;
25509;SDS011;13413;52.336;21.200;2023-11-21T17:31:33;44.80;;;24.90;;